Time;durP1;ratioP1;P1;durP2;ratioP2;P2;SDS_P1;SDS_P2;PMS_P1;PMS_P2;Temp;Humidity;BMP_temperature;BMP_pressure;BME280_temperature;BME280_humidity;BME280_pressure;Samples;Min_cycle;Max_cycle;Signal;HPM_P1;HPM_P2
2021/06/09 00:01:46;;;;;;;11.27;10.20;;;21.00;99.90;;;;;;5030793;28;20018;-73
2021/06/09 00:04:12;;;;;;;11.07;10.10;;;21.10;99.90;;;;;;5030264;28;20024;-74
2021/06/09 00:06:38;;;;;;;11.23;10.40;;;21.00;99.90;;;;;;5029673;28;20048;-74
2021/06/09 00:09:06;;;;;;;11.93;10.13;;;21.10;99.90;;;;;;5030633;28;20448;-74
2021/06/09 00:11:32;;;;;;;10.48;9.57;;;21.10;99.90;;;;;;5030075;28;20064;-74
2021/06/09 00:13:58;;;;;;;11.68;9.82;;;21.10;99.90;;;;;;5029483;28;20541;-74
2021/06/09 00:16:24;;;;;;;11.52;9.68;;;21.20;99.90;;;;;;5031305;28;20033;-74
2021/06/09 00:18:50;;;;;;;11.18;10.35;;;21.20;99.90;;;;;;5030527;28;20056;-73
2021/06/09 00:21:17;;;;;;;13.00;9.88;;;21.10;99.90;;;;;;5031331;28;20061;-73
2021/06/09 00:23:43;;;;;;;12.02;10.88;;;21.20;99.90;;;;;;5030831;28;20045;-73
2021/06/09 00:26:09;;;;;;;11.98;10.98;;;21.20;99.90;;;;;;5013291;28;20029;-74
2021/06/09 00:28:36;;;;;;;13.00;11.75;;;21.10;99.90;;;;;;5031060;28;20080;-74
2021/06/09 00:31:04;;;;;;;12.20;10.23;;;21.10;99.90;;;;;;5030017;28;20391;-73
2021/06/09 00:33:30;;;;;;;14.68;10.40;;;21.10;99.90;;;;;;5030411;28;20029;-74
2021/06/09 00:35:58;;;;;;;11.75;10.43;;;21.10;99.90;;;;;;5031869;28;20053;-74
2021/06/09 00:38:25;;;;;;;11.07;9.85;;;21.10;99.90;;;;;;5031081;28;20123;-75
2021/06/09 00:40:51;;;;;;;11.02;10.15;;;21.00;99.90;;;;;;5029473;28;20386;-74
2021/06/09 00:43:19;;;;;;;11.48;10.18;;;21.00;99.90;;;;;;5030302;28;20025;-74
2021/06/09 00:46:00;;;;;;;11.02;10.02;;;21.00;99.90;;;;;;5029968;28;20033;-74
2021/06/09 00:48:29;;;;;;;11.98;11.07;;;20.90;99.90;;;;;;5011672;28;20030;-73
2021/06/09 00:50:58;;;;;;;11.02;9.95;;;20.90;99.90;;;;;;5030474;28;20430;-74
2021/06/09 00:53:38;;;;;;;14.20;11.05;;;20.90;99.90;;;;;;5030485;28;20096;-74
2021/06/09 00:56:09;;;;;;;12.85;11.65;;;20.70;99.90;;;;;;5029841;28;20087;-73
2021/06/09 00:58:36;;;;;;;11.82;10.73;;;20.70;99.90;;;;;;5013231;28;20380;-73
2021/06/09 01:01:03;;;;;;;15.88;11.05;;;20.70;99.90;;;;;;5027222;28;20108;-74
2021/06/09 01:03:30;;;;;;;11.43;10.30;;;20.70;99.90;;;;;;5029985;28;20041;-74
2021/06/09 01:05:56;;;;;;;11.02;10.02;;;20.70;99.90;;;;;;5029638;28;20037;-74
2021/06/09 01:08:22;;;;;;;11.90;9.85;;;20.60;99.90;;;;;;5012482;28;20031;-74
2021/06/09 01:10:50;;;;;;;18.38;10.88;;;20.70;99.90;;;;;;5030005;28;20040;-74
2021/06/09 01:13:29;;;;;;;12.38;10.43;;;20.70;99.90;;;;;;5028455;28;20087;-73
2021/06/09 01:15:56;;;;;;;11.70;10.30;;;20.80;99.90;;;;;;5027536;28;20030;-74
2021/06/09 01:18:22;;;;;;;11.93;10.80;;;20.70;99.90;;;;;;5030396;28;20394;-73
2021/06/09 01:20:49;;;;;;;12.73;11.25;;;20.70;99.90;;;;;;5013034;28;20411;-73
2021/06/09 01:23:15;;;;;;;11.57;10.68;;;20.60;99.90;;;;;;5030251;28;20037;-74
2021/06/09 01:25:41;;;;;;;11.38;10.27;;;20.60;99.90;;;;;;5031059;28;20099;-73
2021/06/09 01:28:08;;;;;;;11.45;10.55;;;20.60;99.90;;;;;;5027854;28;20036;-73
2021/06/09 01:30:35;;;;;;;10.30;9.40;;;20.50;99.90;;;;;;5030807;28;20022;-73
2021/06/09 01:33:01;;;;;;;11.77;10.88;;;20.40;99.90;;;;;;5028713;28;20021;-75
2021/06/09 01:35:27;;;;;;;13.07;11.68;;;20.40;99.90;;;;;;5030643;28;20615;-73
2021/06/09 01:37:53;;;;;;;12.52;11.18;;;20.40;99.90;;;;;;5029840;28;20381;-73
2021/06/09 01:40:21;;;;;;;12.68;11.57;;;20.40;99.90;;;;;;5030540;28;20064;-75
2021/06/09 01:42:48;;;;;;;11.13;10.13;;;20.40;99.90;;;;;;5027903;28;20586;-74
2021/06/09 01:45:23;;;;;;;11.82;9.85;;;20.40;99.90;;;;;;5028996;28;20544;-75
2021/06/09 01:47:50;;;;;;;14.48;10.48;;;20.40;99.90;;;;;;5010951;28;20033;-75
2021/06/09 01:50:17;;;;;;;17.35;11.65;;;20.40;99.90;;;;;;5029559;28;20060;-74
2021/06/09 01:52:45;;;;;;;11.88;10.82;;;20.40;99.90;;;;;;5030763;28;20043;-75
2021/06/09 01:55:13;;;;;;;12.35;11.32;;;20.30;99.90;;;;;;5029296;28;20029;-73
2021/06/09 01:57:39;;;;;;;16.42;10.40;;;20.40;99.90;;;;;;5028468;28;20387;-73
2021/06/09 02:00:24;;;;;;;11.25;9.85;;;20.40;99.90;;;;;;5012699;28;20025;-74
2021/06/09 02:02:51;;;;;;;11.82;10.60;;;20.50;99.90;;;;;;5021666;28;20121;-74
2021/06/09 02:05:16;;;;;;;12.32;11.13;;;20.50;99.90;;;;;;5028331;28;20032;-74
2021/06/09 02:07:44;;;;;;;11.25;9.95;;;20.50;99.90;;;;;;5028069;28;20018;-73
2021/06/09 02:10:16;;;;;;;11.52;10.10;;;20.50;99.90;;;;;;5028014;28;20017;-74
2021/06/09 02:12:45;;;;;;;11.75;10.65;;;20.60;99.90;;;;;;5010869;28;20395;-74
2021/06/09 02:15:12;;;;;;;12.35;11.02;;;20.60;99.90;;;;;;5026245;28;20411;-75
2021/06/09 02:17:42;;;;;;;14.32;10.18;;;20.60;99.90;;;;;;5029806;28;20018;-74
2021/06/09 02:20:10;;;;;;;12.13;11.02;;;20.50;99.90;;;;;;5030144;28;20083;-74
2021/06/09 02:22:36;;;;;;;12.40;11.20;;;20.50;99.90;;;;;;5009420;28;20041;-74
2021/06/09 02:25:05;;;;;;;11.35;10.45;;;20.50;99.90;;;;;;5030215;28;20043;-74
2021/06/09 02:27:33;;;;;;;11.95;10.75;;;20.40;99.90;;;;;;5010716;28;20557;-74
2021/06/09 02:30:00;;;;;;;11.93;10.95;;;20.50;99.90;;;;;;5029826;28;20664;-73
2021/06/09 02:32:26;;;;;;;12.05;10.73;;;20.50;99.90;;;;;;5029634;28;20030;-74
2021/06/09 02:34:52;;;;;;;11.88;10.73;;;20.40;99.90;;;;;;5012543;28;20395;-73
2021/06/09 02:37:19;;;;;;;11.45;10.35;;;20.30;99.90;;;;;;5029018;28;20036;-74
2021/06/09 02:39:45;;;;;;;13.63;10.90;;;20.30;99.90;;;;;;5028285;28;20014;-74
2021/06/09 02:42:20;;;;;;;13.40;10.27;;;20.30;99.90;;;;;;5011642;28;20025;-74
2021/06/09 02:44:48;;;;;;;12.32;10.55;;;20.20;99.90;;;;;;5030129;28;20037;-73
2021/06/09 02:47:17;;;;;;;10.75;9.68;;;20.20;99.90;;;;;;5027911;28;20131;-74
2021/06/09 02:49:45;;;;;;;12.05;10.63;;;20.20;99.90;;;;;;5012534;28;20033;-73
2021/06/09 02:52:27;;;;;;;10.73;9.80;;;20.20;99.90;;;;;;5029809;28;20021;-72
2021/06/09 02:55:00;;;;;;;15.75;9.57;;;20.20;99.90;;;;;;5028911;28;20033;-74
2021/06/09 02:57:48;;;;;;;10.10;9.20;;;20.20;99.90;;;;;;5029813;28;20124;-73
2021/06/09 03:00:23;;;;;;;11.80;9.68;;;20.20;99.90;;;;;;5031281;28;20026;-74
2021/06/09 03:03:13;;;;;;;10.75;9.93;;;20.30;99.90;;;;;;5023379;28;20025;-73
2021/06/09 03:05:53;;;;;;;11.88;9.50;;;20.20;99.90;;;;;;5029803;28;20034;-74
2021/06/09 03:09:04;;;;;;;11.30;10.27;;;20.20;99.90;;;;;;5029097;28;20029;-74
2021/06/09 03:11:51;;;;;;;11.85;10.85;;;20.30;99.90;;;;;;4953183;28;20054;-74
2021/06/09 03:17:04;;;;;;;9.45;8.10;;;20.60;99.90;;;;;;5034075;28;20116;-74
2021/06/09 03:20:03;;;;;;;10.45;9.55;;;20.70;99.90;;;;;;5035095;28;20048;-73
2021/06/09 03:22:44;;;;;;;10.10;8.88;;;20.80;99.90;;;;;;5036554;28;20025;-73
2021/06/09 03:25:17;;;;;;;10.02;8.98;;;20.90;99.90;;;;;;5018376;28;20025;-73
2021/06/09 03:27:53;;;;;;;10.82;9.70;;;20.90;99.90;;;;;;5030126;28;20045;-73
2021/06/09 03:30:22;;;;;;;11.60;8.85;;;20.90;99.90;;;;;;5034598;28;20017;-73
2021/06/09 03:33:09;;;;;;;12.88;10.15;;;20.90;99.90;;;;;;5035760;28;20029;-73
2021/06/09 03:35:40;;;;;;;10.82;9.05;;;20.90;99.90;;;;;;5036359;28;20033;-72
2021/06/09 03:38:13;;;;;;;12.65;9.82;;;20.80;99.90;;;;;;5035829;28;20045;-73
2021/06/09 03:40:42;;;;;;;10.23;9.35;;;20.80;99.90;;;;;;5030767;28;20033;-73
2021/06/09 03:43:11;;;;;;;11.95;10.75;;;20.80;99.90;;;;;;5034765;28;20424;-73
2021/06/09 03:45:46;;;;;;;12.70;9.32;;;20.80;99.90;;;;;;5018100;28;20036;-73
2021/06/09 03:48:15;;;;;;;10.50;9.38;;;20.80;99.90;;;;;;5015934;28;20029;-73
2021/06/09 03:50:42;;;;;;;11.63;9.38;;;20.80;99.90;;;;;;5035421;28;20063;-72
2021/06/09 03:53:08;;;;;;;14.57;8.90;;;20.80;99.90;;;;;;5036732;28;20521;-73
2021/06/09 03:55:37;;;;;;;12.50;8.75;;;20.90;99.90;;;;;;5040797;28;20030;-74
2021/06/09 03:58:04;;;;;;;11.18;10.02;;;20.80;99.90;;;;;;5042838;28;20492;-73
2021/06/09 04:00:31;;;;;;;11.50;9.65;;;20.80;99.90;;;;;;5035516;28;20036;-72
2021/06/09 04:02:58;;;;;;;13.07;10.23;;;20.80;99.90;;;;;;5033377;28;20033;-73
2021/06/09 04:05:26;;;;;;;9.73;8.82;;;20.80;99.90;;;;;;5031338;28;20060;-73
2021/06/09 04:07:56;;;;;;;12.20;9.20;;;20.80;99.90;;;;;;5031107;28;20083;-73
2021/06/09 04:10:23;;;;;;;11.00;9.98;;;20.80;99.90;;;;;;5008900;28;20049;-73
2021/06/09 04:12:49;;;;;;;9.98;9.15;;;20.80;99.90;;;;;;5029779;28;20017;-73
2021/06/09 04:15:17;;;;;;;10.00;8.98;;;20.70;99.90;;;;;;5013078;28;20110;-73
2021/06/09 04:17:44;;;;;;;10.00;9.23;;;20.80;99.90;;;;;;5031518;28;20514;-73
2021/06/09 04:20:12;;;;;;;10.68;9.85;;;20.80;99.90;;;;;;5031883;28;20029;-73
2021/06/09 04:22:39;;;;;;;11.63;9.43;;;21.10;99.90;;;;;;5032149;28;20072;-73
2021/06/09 04:25:08;;;;;;;11.13;9.95;;;21.10;99.90;;;;;;5013949;28;20029;-73
2021/06/09 04:27:38;;;;;;;11.68;10.55;;;21.20;99.90;;;;;;5012114;28;20507;-73
2021/06/09 04:30:06;;;;;;;12.43;9.10;;;21.20;99.90;;;;;;5029329;28;20031;-73
2021/06/09 04:32:53;;;;;;;13.88;10.93;;;21.20;99.90;;;;;;5013482;28;20017;-73
2021/06/09 04:35:24;;;;;;;11.95;9.00;;;21.30;99.90;;;;;;5030595;28;20103;-72
2021/06/09 04:37:51;;;;;;;9.50;8.70;;;21.40;99.90;;;;;;5030825;28;20022;-73
2021/06/09 04:40:25;;;;;;;11.27;8.82;;;21.40;99.90;;;;;;5029150;28;20025;-73
2021/06/09 04:42:53;;;;;;;11.52;8.52;;;21.50;99.90;;;;;;5029311;28;20041;-73
2021/06/09 04:45:21;;;;;;;13.57;9.10;;;21.60;99.90;;;;;;5028484;28;20044;-74
2021/06/09 04:47:47;;;;;;;11.43;8.88;;;21.70;99.90;;;;;;5029009;28;20391;-72
2021/06/09 04:50:17;;;;;;;9.25;7.78;;;21.70;99.90;;;;;;5030588;28;20026;-72
2021/06/09 04:52:43;;;;;;;9.40;8.45;;;21.80;99.90;;;;;;5029864;28;20215;-73
2021/06/09 04:55:10;;;;;;;9.35;8.35;;;21.80;99.90;;;;;;5028140;28;20104;-72
2021/06/09 04:57:36;;;;;;;7.53;6.85;;;21.90;99.90;;;;;;5026678;28;20037;-74
2021/06/09 05:00:08;;;;;;;14.55;8.07;;;22.00;99.90;;;;;;5013423;28;20029;-75
2021/06/09 05:02:34;;;;;;;9.25;8.35;;;22.10;99.90;;;;;;5030379;28;20022;-72
2021/06/09 05:04:59;;;;;;;12.15;8.30;;;22.20;99.90;;;;;;5028843;28;20038;-73
2021/06/09 05:07:25;;;;;;;8.18;7.47;;;22.20;99.90;;;;;;5030958;28;20555;-74
2021/06/09 05:09:53;;;;;;;7.78;7.13;;;22.20;99.90;;;;;;5030510;28;20026;-73
2021/06/09 05:12:33;;;;;;;7.68;7.18;;;22.30;99.90;;;;;;5029585;28;20076;-73
2021/06/09 05:15:01;;;;;;;8.63;7.82;;;22.30;99.90;;;;;;5030575;28;20092;-73
2021/06/09 05:17:34;;;;;;;13.43;8.50;;;22.40;99.90;;;;;;5029475;28;20510;-72
2021/06/09 05:20:01;;;;;;;9.55;7.68;;;22.40;99.90;;;;;;5028031;28;20629;-73
2021/06/09 05:22:33;;;;;;;9.48;8.60;;;22.60;99.90;;;;;;5030928;28;20092;-73
2021/06/09 05:25:05;;;;;;;10.32;7.03;;;22.60;99.90;;;;;;5029574;28;20029;-73
2021/06/09 05:27:32;;;;;;;10.68;7.07;;;22.70;99.90;;;;;;5029337;28;20510;-73
2021/06/09 05:29:59;;;;;;;8.60;7.68;;;22.80;99.90;;;;;;5013004;28;20029;-73
2021/06/09 05:32:28;;;;;;;6.88;6.38;;;22.80;99.90;;;;;;5012780;28;20045;-74
2021/06/09 05:34:55;;;;;;;9.02;7.38;;;23.00;99.90;;;;;;5028373;28;20022;-73
2021/06/09 05:37:22;;;;;;;10.93;7.32;;;23.00;99.90;;;;;;5031848;28;20028;-73
2021/06/09 05:39:48;;;;;;;8.30;7.45;;;23.10;99.90;;;;;;5029280;28;20124;-73
2021/06/09 05:42:15;;;;;;;8.45;7.22;;;23.20;99.90;;;;;;5012105;28;20083;-73
2021/06/09 05:44:47;;;;;;;7.35;6.43;;;23.20;99.90;;;;;;5028469;28;20025;-73
2021/06/09 05:47:14;;;;;;;7.97;6.95;;;23.40;99.90;;;;;;5028888;28;20026;-76
2021/06/09 05:49:40;;;;;;;7.30;6.70;;;23.50;99.90;;;;;;5030434;28;20498;-74
2021/06/09 05:52:06;;;;;;;7.78;7.07;;;23.60;99.90;;;;;;5027008;28;20116;-74
2021/06/09 05:54:38;;;;;;;7.70;7.10;;;23.70;99.90;;;;;;5029067;28;20029;-75
2021/06/09 05:57:06;;;;;;;6.63;6.10;;;23.80;99.90;;;;;;5014617;28;20030;-74
2021/06/09 05:59:33;;;;;;;8.93;7.03;;;24.00;99.90;;;;;;5029793;28;20026;-74
2021/06/09 06:02:00;;;;;;;10.35;8.25;;;24.00;99.90;;;;;;5013390;28;20090;-74
2021/06/09 06:04:26;;;;;;;7.65;6.93;;;24.10;99.90;;;;;;5004926;28;20040;-75
2021/06/09 06:06:53;;;;;;;7.40;6.80;;;24.30;99.90;;;;;;5014399;28;20028;-75
2021/06/09 06:09:19;;;;;;;8.48;7.13;;;24.40;99.90;;;;;;5031567;28;20024;-75
2021/06/09 06:11:46;;;;;;;7.60;6.82;;;24.60;99.90;;;;;;5032942;28;20022;-74
2021/06/09 06:14:13;;;;;;;7.70;7.10;;;24.60;99.90;;;;;;5031772;28;20052;-75
2021/06/09 06:16:48;;;;;;;10.55;7.80;;;24.60;99.90;;;;;;5031042;28;20028;-74
2021/06/09 06:19:14;;;;;;;7.63;6.88;;;24.70;99.90;;;;;;5010748;28;20026;-76
2021/06/09 06:21:40;;;;;;;8.95;8.18;;;24.80;99.90;;;;;;5030602;28;20052;-76
2021/06/09 06:24:07;;;;;;;8.00;7.22;;;24.80;99.90;;;;;;5028963;28;20033;-76
2021/06/09 06:26:33;;;;;;;7.15;6.40;;;24.90;99.90;;;;;;5029799;28;20091;-76
2021/06/09 06:28:58;;;;;;;10.07;7.47;;;24.80;99.90;;;;;;5029165;28;20033;-76
2021/06/09 06:31:26;;;;;;;8.70;7.90;;;24.80;99.90;;;;;;5029507;28;20026;-75
2021/06/09 06:33:55;;;;;;;8.38;7.43;;;24.80;99.90;;;;;;5029632;28;20097;-74
2021/06/09 06:36:25;;;;;;;12.80;7.80;;;25.00;99.90;;;;;;5029129;28;20026;-76
2021/06/09 06:38:51;;;;;;;7.72;6.97;;;25.00;99.90;;;;;;5029558;28;20033;-76
2021/06/09 06:41:18;;;;;;;8.70;7.85;;;25.10;99.90;;;;;;5028382;28;20029;-76
2021/06/09 06:43:44;;;;;;;14.68;6.75;;;25.20;99.90;;;;;;5027042;28;20056;-74
2021/06/09 06:46:13;;;;;;;8.25;7.55;;;25.30;99.90;;;;;;5007063;28;20037;-75
2021/06/09 06:48:39;;;;;;;12.43;7.70;;;25.30;99.90;;;;;;5029154;28;20014;-75
2021/06/09 06:51:07;;;;;;;7.82;6.93;;;25.30;99.90;;;;;;5015572;28;20029;-76
2021/06/09 06:53:34;;;;;;;9.27;8.32;;;25.40;99.90;;;;;;5032138;28;20021;-76
2021/06/09 06:56:01;;;;;;;7.85;7.15;;;25.40;99.90;;;;;;5015742;28;20036;-73
2021/06/09 06:58:31;;;;;;;9.27;8.52;;;25.50;99.90;;;;;;5015018;28;20033;-74
2021/06/09 07:00:58;;;;;;;8.20;7.03;;;25.50;99.90;;;;;;5026711;28;20036;-74
2021/06/09 07:03:24;;;;;;;7.78;7.13;;;25.50;99.90;;;;;;5032092;28;20040;-73
2021/06/09 07:05:51;;;;;;;7.95;7.15;;;25.50;99.90;;;;;;5027234;28;20159;-73
2021/06/09 07:08:17;;;;;;;9.52;8.20;;;25.50;99.90;;;;;;5033323;28;20171;-73
2021/06/09 07:10:43;;;;;;;9.15;8.18;;;25.50;99.90;;;;;;5037913;28;20060;-73
2021/06/09 07:13:09;;;;;;;15.50;8.90;;;25.60;99.90;;;;;;5018677;28;20025;-73
2021/06/09 07:15:39;;;;;;;9.32;7.60;;;25.60;99.90;;;;;;5027869;28;20025;-74
2021/06/09 07:18:06;;;;;;;9.43;8.43;;;25.60;99.90;;;;;;5032801;28;20087;-75
2021/06/09 07:20:32;;;;;;;10.98;8.57;;;25.70;99.90;;;;;;5031535;28;20075;-74
2021/06/09 07:22:59;;;;;;;11.70;8.13;;;25.70;99.90;;;;;;5032738;28;20025;-74
2021/06/09 07:25:26;;;;;;;8.65;7.93;;;25.70;99.90;;;;;;5031848;28;20025;-73
2021/06/09 07:28:01;;;;;;;14.05;9.77;;;25.80;99.90;;;;;;5031885;28;20032;-73
2021/06/09 07:30:34;;;;;;;14.90;13.60;;;25.80;99.90;;;;;;5032117;28;20071;-74
2021/06/09 07:33:02;;;;;;;11.18;10.18;;;25.80;99.90;;;;;;5032938;28;20128;-75
2021/06/09 07:35:28;;;;;;;8.15;7.55;;;25.90;99.90;;;;;;5032241;28;20028;-73
2021/06/09 07:38:01;;;;;;;9.55;8.57;;;25.90;99.90;;;;;;5034233;28;20033;-73
2021/06/09 07:40:30;;;;;;;13.82;7.88;;;25.80;99.90;;;;;;5032278;28;20043;-74
2021/06/09 07:43:01;;;;;;;9.75;8.20;;;25.70;99.90;;;;;;5032044;28;20047;-74
2021/06/09 07:45:27;;;;;;;11.38;8.98;;;25.80;99.90;;;;;;5029632;28;20033;-73
2021/06/09 07:47:55;;;;;;;11.32;9.40;;;25.90;99.90;;;;;;5031159;28;20014;-74
2021/06/09 07:50:32;;;;;;;14.40;8.73;;;25.90;99.90;;;;;;5030863;28;20140;-73
2021/06/09 07:53:05;;;;;;;10.73;9.65;;;26.10;99.90;;;;;;5032663;28;20025;-74
2021/06/09 07:55:33;;;;;;;10.00;9.10;;;26.10;99.90;;;;;;5032009;28;20513;-73
2021/06/09 07:58:00;;;;;;;15.32;8.70;;;26.20;99.90;;;;;;5031145;28;20486;-75
2021/06/09 08:00:26;;;;;;;8.98;8.18;;;26.30;99.90;;;;;;5031896;28;20037;-73
2021/06/09 08:02:56;;;;;;;16.48;8.75;;;26.40;99.90;;;;;;5032148;28;20161;-75
2021/06/09 08:05:24;;;;;;;9.63;7.85;;;26.60;99.90;;;;;;5031904;28;20026;-74
2021/06/09 08:07:51;;;;;;;9.45;8.68;;;26.40;99.90;;;;;;5030705;28;20017;-75
2021/06/09 08:10:17;;;;;;;10.95;9.68;;;26.50;99.90;;;;;;5031047;28;20044;-74
2021/06/09 08:12:43;;;;;;;15.25;8.50;;;26.50;99.90;;;;;;5031583;28;20045;-73
2021/06/09 08:15:11;;;;;;;12.55;8.38;;;26.50;99.90;;;;;;5031744;28;20021;-73
2021/06/09 08:17:39;;;;;;;10.10;8.00;;;26.50;99.90;;;;;;5009367;28;20021;-74
2021/06/09 08:20:07;;;;;;;11.60;8.75;;;26.70;99.90;;;;;;5031692;28;20029;-74
2021/06/09 08:22:33;;;;;;;11.15;8.00;;;26.60;99.90;;;;;;5031229;28;20037;-74
2021/06/09 08:24:59;;;;;;;9.75;8.85;;;26.80;99.90;;;;;;5030338;28;20057;-74
2021/06/09 08:27:25;;;;;;;9.35;8.57;;;26.90;99.90;;;;;;5031184;28;20060;-73
2021/06/09 08:29:51;;;;;;;10.13;9.00;;;27.10;99.90;;;;;;5030756;28;20014;-73
2021/06/09 08:32:16;;;;;;;12.18;9.95;;;27.10;99.90;;;;;;5032007;28;20097;-74
2021/06/09 08:34:42;;;;;;;10.88;9.57;;;27.10;99.90;;;;;;5030783;28;20028;-74
2021/06/09 08:37:08;;;;;;;9.70;8.75;;;27.20;99.90;;;;;;5031188;28;20094;-72
2021/06/09 08:39:33;;;;;;;10.77;8.60;;;27.30;99.90;;;;;;5029856;28;20407;-74
2021/06/09 08:42:03;;;;;;;10.27;9.23;;;27.30;99.90;;;;;;5029179;28;20024;-74
2021/06/09 08:44:29;;;;;;;10.90;9.07;;;27.30;99.90;;;;;;5031335;28;20025;-74
2021/06/09 08:46:58;;;;;;;9.82;8.95;;;27.40;99.90;;;;;;5031633;28;20385;-74
2021/06/09 08:49:24;;;;;;;10.32;8.82;;;27.30;99.90;;;;;;5029921;28;20078;-74
2021/06/09 08:51:53;;;;;;;16.02;8.60;;;27.30;99.90;;;;;;5028845;28;20384;-73
2021/06/09 08:54:19;;;;;;;11.27;9.77;;;27.20;99.90;;;;;;5030232;28;20017;-73
2021/06/09 08:56:46;;;;;;;9.80;8.73;;;27.30;99.90;;;;;;5030280;28;20212;-74
2021/06/09 08:59:13;;;;;;;14.50;8.38;;;27.30;99.90;;;;;;5030163;28;20032;-73
2021/06/09 09:01:39;;;;;;;18.75;9.10;;;27.50;99.90;;;;;;5030127;28;20029;-74
2021/06/09 09:04:04;;;;;;;9.93;8.52;;;27.60;99.90;;;;;;5030270;28;20040;-74
2021/06/09 09:06:31;;;;;;;13.60;8.90;;;27.50;99.90;;;;;;5029995;28;20025;-74
2021/06/09 09:08:57;;;;;;;9.90;8.88;;;27.50;99.90;;;;;;5029093;28;20100;-72
2021/06/09 09:11:24;;;;;;;11.88;9.05;;;27.50;99.90;;;;;;5029212;28;20701;-74
2021/06/09 09:13:50;;;;;;;11.52;8.68;;;27.50;99.90;;;;;;5030353;28;20386;-74
2021/06/09 09:16:16;;;;;;;9.82;8.95;;;27.60;99.90;;;;;;5031051;28;20029;-74
2021/06/09 09:18:55;;;;;;;10.02;9.13;;;27.60;99.90;;;;;;5030455;28;20031;-74
2021/06/09 09:21:40;;;;;;;14.90;9.70;;;27.80;99.90;;;;;;5028666;28;20030;-75
2021/06/09 09:24:08;;;;;;;10.18;9.38;;;27.60;99.90;;;;;;5011008;28;20118;-73
2021/06/09 09:26:35;;;;;;;9.52;8.77;;;27.60;99.90;;;;;;5031458;28;20113;-75
2021/06/09 09:29:27;;;;;;;10.48;9.57;;;27.70;99.90;;;;;;5029889;28;20033;-70
2021/06/09 09:31:54;;;;;;;9.32;8.63;;;27.80;99.90;;;;;;5024671;28;20041;-69
2021/06/09 09:34:31;;;;;;;10.88;9.77;;;28.00;99.90;;;;;;5026047;28;20505;-69
2021/06/09 09:37:08;;;;;;;11.07;9.98;;;28.00;99.90;;;;;;5011269;28;20126;-70
2021/06/09 09:39:39;;;;;;;13.55;9.05;;;27.70;99.90;;;;;;5027916;28;20095;-69
2021/06/09 09:42:17;;;;;;;10.07;8.95;;;27.80;99.90;;;;;;5029792;28;20112;-68
2021/06/09 09:44:43;;;;;;;10.07;9.20;;;27.60;99.90;;;;;;5029176;28;20052;-69
2021/06/09 09:47:23;;;;;;;12.90;11.40;;;27.70;99.90;;;;;;5029125;28;20080;-69
2021/06/09 09:49:50;;;;;;;10.45;8.70;;;27.70;99.90;;;;;;5027478;28;20128;-68
2021/06/09 09:52:17;;;;;;;10.23;9.35;;;27.70;99.90;;;;;;5029269;28;20028;-70
2021/06/09 09:54:44;;;;;;;10.52;9.38;;;27.80;99.90;;;;;;5028137;28;20140;-68
2021/06/09 09:57:12;;;;;;;10.68;8.45;;;28.00;99.90;;;;;;5029930;28;20033;-69
2021/06/09 09:59:39;;;;;;;12.07;9.45;;;27.90;99.90;;;;;;5030609;28;20060;-68
2021/06/09 10:02:15;;;;;;;9.55;8.77;;;28.00;99.90;;;;;;5029621;28;20026;-68
2021/06/09 10:04:43;;;;;;;10.63;9.68;;;28.10;99.90;;;;;;5026658;28;20029;-72
2021/06/09 10:07:09;;;;;;;9.88;8.98;;;28.10;99.90;;;;;;5029754;28;20045;-70
2021/06/09 10:09:34;;;;;;;9.82;8.85;;;28.10;99.90;;;;;;5027330;28;20606;-67
2021/06/09 10:12:07;;;;;;;10.10;9.15;;;28.20;99.90;;;;;;5030171;28;20022;-69
2021/06/09 10:14:46;;;;;;;8.93;8.13;;;28.30;99.90;;;;;;5029652;28;20163;-71
2021/06/09 10:17:22;;;;;;;8.40;7.80;;;28.50;99.90;;;;;;5030418;28;20368;-69
2021/06/09 10:19:56;;;;;;;11.38;8.98;;;28.40;99.90;;;;;;5029936;28;20471;-68
2021/06/09 10:22:25;;;;;;;9.63;8.70;;;28.50;99.90;;;;;;5029108;28;20017;-69
2021/06/09 10:24:57;;;;;;;11.38;8.48;;;28.60;99.90;;;;;;5031433;28;20101;-70
2021/06/09 10:27:38;;;;;;;17.27;9.23;;;28.60;99.90;;;;;;5030964;28;20017;-71
2021/06/09 10:30:25;;;;;;;11.02;8.90;;;28.60;99.90;;;;;;5032763;28;20029;-71
2021/06/09 10:33:02;;;;;;;9.50;8.60;;;28.50;99.90;;;;;;5030172;28;20028;-69
2021/06/09 10:35:33;;;;;;;8.63;7.32;;;28.50;99.90;;;;;;5014336;28;20025;-71
2021/06/09 10:37:59;;;;;;;10.63;8.20;;;28.50;99.90;;;;;;5016711;28;20529;-68
2021/06/09 10:40:27;;;;;;;10.18;9.35;;;28.60;99.90;;;;;;5020260;28;20200;-69
2021/06/09 10:42:59;;;;;;;9.75;8.95;;;28.60;99.90;;;;;;5033001;28;20025;-69
2021/06/09 10:45:25;;;;;;;10.13;8.77;;;28.70;99.90;;;;;;5015427;28;20394;-70
2021/06/09 10:47:55;;;;;;;8.38;7.65;;;28.90;99.90;;;;;;5029158;28;20480;-69
2021/06/09 10:50:22;;;;;;;9.05;8.15;;;28.80;99.90;;;;;;5027502;28;20025;-70
2021/06/09 10:52:49;;;;;;;9.85;8.88;;;28.60;99.90;;;;;;5034965;28;20391;-70
2021/06/09 10:55:14;;;;;;;8.82;7.93;;;28.70;99.90;;;;;;5032716;28;20022;-69
2021/06/09 10:57:41;;;;;;;11.27;7.75;;;28.80;99.90;;;;;;5029846;28;20033;-68
2021/06/09 11:00:14;;;;;;;9.50;8.60;;;29.00;99.90;;;;;;5016751;28;20065;-70
2021/06/09 11:02:42;;;;;;;9.35;8.45;;;29.00;99.90;;;;;;5031647;28;20083;-69
2021/06/09 11:05:10;;;;;;;9.07;8.13;;;29.10;99.90;;;;;;5034631;28;20037;-68
2021/06/09 11:07:43;;;;;;;18.38;8.13;;;29.20;99.90;;;;;;5033089;28;20546;-70
2021/06/09 11:10:10;;;;;;;10.35;9.30;;;29.10;99.90;;;;;;5031324;28;20025;-69
2021/06/09 11:12:56;;;;;;;11.57;8.15;;;28.80;99.90;;;;;;5033515;28;20036;-68
2021/06/09 11:15:31;;;;;;;11.15;8.55;;;28.80;99.90;;;;;;5031025;28;20491;-69
2021/06/09 11:17:59;;;;;;;8.45;7.57;;;29.00;99.90;;;;;;5022124;28;20049;-70
2021/06/09 11:20:37;;;;;;;7.80;7.22;;;29.00;99.90;;;;;;5029011;28;20029;-70
2021/06/09 11:23:10;;;;;;;14.68;8.48;;;29.10;99.90;;;;;;5031837;28;20021;-69
2021/06/09 11:25:47;;;;;;;12.77;10.15;;;29.00;99.90;;;;;;5013343;28;20021;-69
2021/06/09 11:28:32;;;;;;;9.65;8.93;;;28.90;99.90;;;;;;5031051;28;20026;-70
2021/06/09 11:31:06;;;;;;;8.88;8.00;;;28.90;99.90;;;;;;5032750;28;20025;-68
2021/06/09 11:33:59;;;;;;;10.45;8.55;;;29.10;99.90;;;;;;5033057;28;20056;-68
2021/06/09 11:36:29;;;;;;;11.40;7.38;;;29.30;99.90;;;;;;5023975;28;20037;-68
2021/06/09 11:38:58;;;;;;;9.00;8.15;;;29.60;99.90;;;;;;5030449;28;20049;-68
2021/06/09 11:41:37;;;;;;;10.73;7.95;;;29.80;99.90;;;;;;5033125;28;20022;-69
2021/06/09 11:44:04;;;;;;;9.98;6.53;;;30.10;99.90;;;;;;5032112;28;20025;-69
2021/06/09 11:46:34;;;;;;;8.68;7.97;;;30.00;99.90;;;;;;5032884;28;20071;-68
2021/06/09 11:48:59;;;;;;;12.50;8.20;;;30.10;99.90;;;;;;5030559;28;20033;-69
2021/06/09 11:51:36;;;;;;;9.38;6.97;;;30.00;99.90;;;;;;5028466;28;20028;-70
2021/06/09 11:54:29;;;;;;;7.63;6.88;;;30.20;99.90;;;;;;5029942;28;20479;-69
2021/06/09 11:57:12;;;;;;;8.75;7.95;;;30.00;99.90;;;;;;5032281;28;20129;-70
2021/06/09 11:59:40;;;;;;;18.17;9.07;;;30.00;99.90;;;;;;5012428;28;20436;-72
2021/06/09 12:02:19;;;;;;;14.82;9.18;;;29.70;99.90;;;;;;5030994;28;20035;-69
2021/06/09 12:04:47;;;;;;;11.10;9.95;;;29.30;99.90;;;;;;5029905;28;20029;-70
2021/06/09 12:07:19;;;;;;;14.65;9.55;;;28.60;99.90;;;;;;5031116;28;20503;-69
2021/06/09 12:09:45;;;;;;;9.25;8.55;;;28.30;99.90;;;;;;5030655;28;20047;-68
2021/06/09 12:12:11;;;;;;;11.65;10.50;;;28.20;99.90;;;;;;5031487;28;20100;-69
2021/06/09 12:14:38;;;;;;;11.27;10.15;;;28.20;99.90;;;;;;5031710;28;20029;-69
2021/06/09 12:17:41;;;;;;;11.05;9.55;;;28.00;99.90;;;;;;5032286;28;20022;-67
2021/06/09 12:20:13;;;;;;;13.57;12.15;;;28.00;99.90;;;;;;4983118;28;20072;-67
2021/06/09 12:22:47;;;;;;;11.95;10.77;;;27.80;99.90;;;;;;5030044;28;20033;-67
2021/06/09 12:25:28;;;;;;;13.02;10.10;;;27.40;99.90;;;;;;5022470;28;20519;-70
2021/06/09 12:28:05;;;;;;;;;;;27.00;99.90;;;;;;5021007;28;20391;-69
2021/06/09 12:30:33;;;;;;;13.98;11.77;;;26.90;99.90;;;;;;5025413;28;19962;-70
2021/06/09 12:33:00;;;;;;;13.65;11.90;;;26.90;99.90;;;;;;5023455;28;21851;-70
2021/06/09 12:35:27;;;;;;;12.30;11.35;;;27.10;99.90;;;;;;5024506;28;20446;-70
2021/06/09 12:38:04;;;;;;;13.88;10.60;;;27.10;99.90;;;;;;5025151;28;20034;-69
2021/06/09 12:40:33;;;;;;;15.05;11.73;;;27.00;99.90;;;;;;5030712;28;20033;-70
2021/06/09 12:43:00;;;;;;;14.60;11.90;;;26.80;99.90;;;;;;5012640;28;20431;-70
2021/06/09 12:45:28;;;;;;;17.05;11.63;;;26.70;99.90;;;;;;5031973;28;20036;-70
2021/06/09 12:48:02;;;;;;;11.05;9.75;;;26.60;99.90;;;;;;5031504;28;20049;-71
2021/06/09 12:50:33;;;;;;;13.77;11.15;;;26.70;99.90;;;;;;5031724;28;20026;-70
2021/06/09 12:53:08;;;;;;;13.30;12.13;;;27.00;99.90;;;;;;5014152;28;20045;-68
2021/06/09 12:55:38;;;;;;;12.57;11.38;;;27.10;99.90;;;;;;5030151;28;20355;-69